Terminal Aerodrome Forecast
Issued by NWS

Home | Current Version | Previous Version | Text Only | Print | Product List | Glossary On
Versions: 1 2 3 4 5 6 7 8 9 10 11 12 13 14 15 16 17 18 19 20 21
000
FTUS43 KLSX 251700
TAFUIN
TAF
KUIN 251738Z 2518/2618 07012KT 5SM -RA BR OVC007
     FM252200 03014KT P6SM OVC007
     FM261000 03010KT P6SM BKN035=

USA.gov is the U.S. government's official web portal to all federal, state and local government web resources and services.